Latest Weather Observations for Hillarys Point Boat Harbour

IDW60901

Issued at 11:41 pm WST Tuesday 19 March 2019 (issued every 10 minutes, with the page automatically refreshed every 10 minutes)

About weather observations | Map of Perth area stations | Latest observations for Perth area | Other Formats
Station Details ID: 009265 Name: HILLARYS BOAT HARBOUR NTC AWS Lat: -31.83 Lon: 115.74 Height: 0.0 m
Data from the previous 72 hours. | See also: Recent months for locations in Western Australia
Date/Time
WST
Temp
°C
App
Temp
°C
Dew
Point
°C
Rel
Hum
%
Delta-T
°C
Wind Press
QNH
hPa
Press
MSL
hPa
Rain since
9am
mm
Dir  Spd
km/h
Gust
km/h
Spd
kts
Gust
kts
19/11:30pm 22.2 - - - - W 11 19 6 10 1010.3 1010.3 -
19/11:00pm 22.5 - - - - WSW 7 9 4 5 1010.1 1010.1 -
19/10:30pm 22.5 - - - - SW 6 9 3 5 1010.2 1010.2 -
19/10:00pm 22.7 - - - - WSW 9 11 5 6 1010.4 1010.4 -
19/09:30pm 23.0 - - - - SW 6 9 3 5 1010.6 1010.6 -
19/09:00pm 23.1 - - - - SW 4 7 2 4 1010.5 1010.5 -
19/08:30pm 22.9 - - - - SW 2 4 1 2 1010.5 1010.5 -
19/08:00pm 22.9 - - - - S 4 9 2 5 1010.3 1010.3 -
19/07:30pm 22.8 - - - - S 6 13 3 7 1010.1 1010.1 -
19/07:00pm 22.7 - - - - SSW 7 17 4 9 1009.6 1009.6 -
19/06:30pm 22.7 - - - - SSW 7 13 4 7 1009.4 1009.4 -
19/06:00pm 23.0 - - - - SSW 7 19 4 10 1009.0 1009.0 -
19/05:30pm 23.3 - - - - SSW 9 19 5 10 1008.6 1008.6 -
19/05:00pm 24.1 - - - - SSW 6 15 3 8 1008.2 1008.2 -
19/04:30pm 23.9 - - - - SSW 9 19 5 10 1008.4 1008.4 -
19/04:00pm 23.9 - - - - SW 13 20 7 11 1008.3 1008.3 -
19/03:30pm 23.6 - - - - WSW 19 24 10 13 1008.8 1008.8 -
19/03:00pm 23.5 - - - - SW 17 26 9 14 1009.0 1009.0 -
19/02:30pm 23.9 - - - - SW 15 20 8 11 1008.8 1008.8 -
19/02:00pm 24.2 - - - - SW 15 20 8 11 1008.9 1008.9 -
19/01:30pm 23.9 - - - - WSW 17 22 9 12 1009.0 1009.0 -
19/01:00pm 23.4 - - - - WSW 13 19 7 10 1009.1 1009.1 -
19/12:30pm 23.5 - - - - WSW 9 13 5 7 1009.4 1009.4 -
19/12:00pm 24.1 - - - - SW 9 13 5 7 1009.7 1009.7 -
19/11:30am 23.4 - - - - WSW 11 15 6 8 1010.1 1010.1 -
19/11:00am 23.4 - - - - W 9 15 5 8 1010.4 1010.4 -
19/10:30am 23.5 - - - - W 11 17 6 9 1010.8 1010.8 -
19/10:00am 23.4 - - - - W 4 6 2 3 1010.7 1010.7 -
19/09:30am 23.0 - - - - WNW 6 9 3 5 1011.0 1011.0 -
19/09:00am 22.7 - - - - NNW 6 9 3 5 1010.8 1010.8 -
19/08:30am 22.4 - - - - NW 9 15 5 8 1010.6 1010.6 -
19/08:00am 22.5 - - - - NNW 9 15 5 8 1010.5 1010.5 -
19/07:30am 22.1 - - - - NNW 7 13 4 7 1010.4 1010.4 -
19/07:00am 21.7 - - - - N 6 7 3 4 1010.0 1010.0 -
19/06:30am 21.7 - - - - N 6 9 3 5 1009.7 1009.7 -
19/06:00am 22.1 - - - - NNE 6 9 3 5 1009.5 1009.5 -
19/05:30am 23.0 - - - - ENE 7 13 4 7 1009.4 1009.4 -
19/05:00am 21.8 - - - - ENE 4 7 2 4 1009.3 1009.3 -
19/04:30am 21.7 - - - - N 2 4 1 2 1009.1 1009.1 -
19/04:00am 21.7 - - - - NNE 2 6 1 3 1008.9 1008.9 -
19/03:30am 22.1 - - - - E 4 6 2 3 1008.7 1008.7 -
19/03:00am 22.4 - - - - SE 2 4 1 2 1008.7 1008.7 -
19/02:30am 22.6 - - - - W 6 7 3 4 1009.4 1009.4 -
19/02:00am 22.7 - - - - W 4 7 2 4 1009.6 1009.6 -
19/01:30am 22.6 - - - - NW 4 6 2 3 1009.3 1009.3 -
19/01:00am 22.7 - - - - NNE 2 6 1 3 1009.3 1009.3 -
19/12:30am 23.0 - - - - N 2 4 1 2 1009.2 1009.2 -
19/12:00am 23.2 - - - - WNW 6 9 3 5 1009.5 1009.5 -
 
Date/Time
WST
Temp
°C
App
Temp
°C
Dew
Point
°C
Rel
Hum
%
Delta-T
°C
Wind Press
QNH
hPa
Press
MSL
hPa
Rain since
9am
mm
Dir  Spd
km/h
Gust
km/h
Spd
kts
Gust
kts
18/11:30pm 23.4 - - - - W 2 6 1 3 1009.6 1009.6 -
18/11:00pm 23.7 - - - - NNW 7 11 4 6 1010.0 1010.0 -
18/10:30pm 23.8 - - - - CALM 0 2 0 1 1010.1 1010.1 -
18/10:00pm 23.6 - - - - S 4 7 2 4 1010.1 1010.1 -
18/09:30pm 23.5 - - - - SW 6 9 3 5 1009.9 1009.9 -
18/09:00pm 23.7 - - - - WSW 4 7 2 4 1010.0 1010.0 -
18/08:30pm 24.0 - - - - SW 7 11 4 6 1010.1 1010.1 -
18/08:00pm 24.1 - - - - SSW 4 7 2 4 1010.1 1010.1 -
18/07:30pm 23.8 - - - - S 2 6 1 3 1010.0 1010.0 -
18/07:00pm 24.3 - - - - SW 7 11 4 6 1009.3 1009.3 -
18/06:30pm 24.3 - - - - SW 9 15 5 8 1009.3 1009.3 -
18/06:00pm 24.7 - - - - SW 9 15 5 8 1009.4 1009.4 -
18/05:30pm 24.8 - - - - S 6 13 3 7 1009.3 1009.3 -
18/05:00pm 24.6 - - - - SSW 6 13 3 7 1008.8 1008.8 -
18/04:30pm 24.9 - - - - SSW 7 15 4 8 1008.8 1008.8 -
18/04:00pm 24.8 - - - - SW 11 19 6 10 1008.7 1008.7 -
18/03:30pm 24.1 - - - - SW 11 15 6 8 1008.9 1008.9 -
18/03:00pm 24.3 - - - - SW 11 17 6 9 1009.1 1009.1 -
18/02:30pm 24.1 - - - - WSW 13 17 7 9 1009.4 1009.4 -
18/02:00pm 23.5 - - - - WSW 15 20 8 11 1009.7 1009.7 -
18/01:30pm 23.4 - - - - WSW 13 17 7 9 1010.1 1010.1 -
18/01:00pm 23.4 - - - - WSW 9 13 5 7 1010.4 1010.4 -
18/12:30pm 23.7 - - - - W 9 15 5 8 1010.9 1010.9 -
18/12:00pm 23.3 - - - - W 7 11 4 6 1011.1 1011.1 -
18/11:30am 23.6 - - - - W 7 13 4 7 1011.6 1011.6 -
18/11:00am 23.5 - - - - W 7 11 4 6 1012.1 1012.1 -
18/10:30am 23.3 - - - - W 7 13 4 7 1012.5 1012.5 -
18/10:00am 23.3 - - - - W 7 13 4 7 1012.8 1012.8 -
18/09:30am 23.3 - - - - W 9 13 5 7 1012.7 1012.7 -
18/09:00am 23.2 - - - - WNW 7 13 4 7 1012.4 1012.4 -
18/08:30am 26.4 - - - - NE 6 9 3 5 1012.5 1012.5 -
18/08:00am 24.9 - - - - ENE 7 15 4 8 1012.5 1012.5 -
18/07:30am 23.3 - - - - ENE 7 15 4 8 1012.2 1012.2 -
18/07:00am 22.2 - - - - ENE 6 9 3 5 1012.1 1012.1 -
18/06:30am 21.3 - - - - ENE 2 6 1 3 1011.8 1011.8 -
18/06:00am 21.1 - - - - NE 2 4 1 2 1011.6 1011.6 -
18/05:30am 21.1 - - - - CALM 0 2 0 1 1011.5 1011.5 -
18/05:00am 22.3 - - - - E 2 4 1 2 1011.3 1011.3 -
18/04:30am 22.2 - - - - N 2 6 1 3 1011.1 1011.1 -
18/04:00am 23.5 - - - - ENE 6 9 3 5 1011.0 1011.0 -
18/03:30am 23.8 - - - - ENE 7 11 4 6 1010.9 1010.9 -
18/03:00am 22.7 - - - - ENE 2 4 1 2 1010.9 1010.9 -
18/02:30am 22.1 - - - - CALM 0 2 0 1 1011.0 1011.0 -
18/02:00am 22.1 - - - - CALM 0 2 0 1 1010.9 1010.9 -
18/01:30am 21.8 - - - - ENE 4 7 2 4 1011.0 1011.0 -
18/01:00am 21.7 - - - - NE 2 2 1 1 1011.1 1011.1 -
18/12:30am 21.9 - - - - NNE 4 6 2 3 1011.3 1011.3 -
18/12:00am 22.1 - - - - N 2 4 1 2 1011.3 1011.3 -
 
Date/Time
WST
Temp
°C
App
Temp
°C
Dew
Point
°C
Rel
Hum
%
Delta-T
°C
Wind Press
QNH
hPa
Press
MSL
hPa
Rain since
9am
mm
Dir  Spd
km/h
Gust
km/h
Spd
kts
Gust
kts
17/11:30pm 22.5 - - - - E 2 4 1 2 1011.3 1011.3 -
17/11:00pm 23.0 - - - - SSE 4 9 2 5 1011.4 1011.4 -
17/10:30pm 23.0 - - - - S 2 7 1 4 1011.7 1011.7 -
17/10:00pm 23.0 - - - - S 4 7 2 4 1012.1 1012.1 -
17/09:30pm 23.1 - - - - S 7 20 4 11 1012.4 1012.4 -
17/09:00pm 23.0 - - - - S 6 19 3 10 1012.7 1012.7 -
17/08:30pm 23.0 - - - - SSW 7 20 4 11 1012.7 1012.7 -
17/08:00pm 23.2 - - - - S 7 20 4 11 1012.4 1012.4 -
17/07:30pm 23.3 - - - - S 9 22 5 12 1012.1 1012.1 -
17/07:00pm 23.5 - - - - S 7 17 4 9 1011.8 1011.8 -
17/06:30pm 23.6 - - - - S 7 17 4 9 1011.7 1011.7 -
17/06:00pm 23.9 - - - - SSW 7 20 4 11 1011.7 1011.7 -
17/05:30pm 24.1 - - - - SSW 9 20 5 11 1011.5 1011.5 -
17/05:00pm 24.1 - - - - SSW 11 26 6 14 1011.2 1011.2 -
17/04:30pm 23.9 - - - - SSW 19 30 10 16 1011.0 1011.0 -
17/04:00pm 24.1 - - - - SSW 19 30 10 16 1011.1 1011.1 -
17/03:30pm 24.3 - - - - SSW 17 32 9 17 1011.2 1011.2 -
17/03:00pm 24.4 - - - - SSW 17 26 9 14 1011.3 1011.3 -
17/02:30pm 24.6 - - - - SSW 15 26 8 14 1011.5 1011.5 -
17/02:00pm 24.7 - - - - SSW 15 26 8 14 1011.8 1011.8 -
17/01:30pm 24.8 - - - - SSW 13 20 7 11 1012.0 1012.0 -
17/01:00pm 24.5 - - - - SW 15 26 8 14 1012.4 1012.4 -
17/12:30pm 24.3 - - - - SW 19 26 10 14 1012.8 1012.8 -
17/12:00pm 23.6 - - - - SW 19 26 10 14 1013.0 1013.0 -
17/11:30am 28.4 - - - - SSW 6 13 3 7 1013.2 1013.2 -
17/11:00am 27.8 - - - - ENE 6 13 3 7 1013.8 1013.8 -
17/10:30am 26.4 - - - - E 11 20 6 11 1014.2 1014.2 -
17/10:00am 25.8 - - - - SE 6 19 3 10 1014.6 1014.6 -
17/09:30am 24.6 - - - - ESE 9 17 5 9 1014.8 1014.8 -
17/09:00am 23.8 - - - - E 9 20 5 11 1014.7 1014.7 -
17/08:30am 22.6 - - - - ESE 6 19 3 10 1014.9 1014.9 -
17/08:00am 21.6 - - - - SSE 6 13 3 7 1015.1 1015.1 -
17/07:30am 20.6 - - - - SSE 6 9 3 5 1014.9 1014.9 -
17/07:00am 20.3 - - - - ESE 2 7 1 4 1014.7 1014.7 -
17/06:30am 19.5 - - - - CALM 0 4 0 2 1014.6 1014.6 -
17/06:00am 20.0 - - - - SSE 6 11 3 6 1014.2 1014.2 -
17/05:30am 20.0 - - - - SE 4 11 2 6 1014.0 1014.0 -
17/05:00am 20.2 - - - - SE 4 11 2 6 1013.7 1013.7 -
17/04:30am 20.4 - - - - SSE 7 11 4 6 1013.6 1013.6 -
17/04:00am 20.5 - - - - SE 2 9 1 5 1013.6 1013.6 -
17/03:30am 20.8 - - - - E 6 19 3 10 1013.5 1013.5 -
17/03:00am 21.2 - - - - E 4 15 2 8 1013.3 1013.3 -
17/02:30am 21.5 - - - - E 7 19 4 10 1013.3 1013.3 -
17/02:00am 21.9 - - - - E 4 13 2 7 1013.1 1013.1 -
17/01:30am 22.4 - - - - E 6 17 3 9 1013.0 1013.0 -
17/01:00am 22.9 - - - - ESE 6 13 3 7 1013.0 1013.0 -
17/12:30am 22.2 - - - - SE 4 7 2 4 1012.8 1012.8 -
17/12:00am 22.2 - - - - SSE 2 9 1 5 1013.0 1013.0 -

Latest Capital City Observations: Canberra | Sydney | Melbourne | Brisbane | Adelaide | Perth | Hobart | Darwin

Other formats

Comma delimited format used in spreadsheet applications
http://www.bom.gov.au/fwo/IDW60901/IDW60901.95605.axf

JavaScript Object Notation format (JSON) in row-major order
http://www.bom.gov.au/fwo/IDW60901/IDW60901.95605.json

Data quality

Most of these data are generated automatically and are frequently updated. Quality checks on data are not normally performed. It is possible for incorrect values to appear. Refer to information at About Latest Weather Observations and please check the disclaimer before using these data.